Time;durP1;ratioP1;P1;durP2;ratioP2;P2;SDS_P1;SDS_P2;PMS_P1;PMS_P2;Temp;Humidity;BMP_temperature;BMP_pressure;BME280_temperature;BME280_humidity;BME280_pressure;Samples;Min_cycle;Max_cycle;Signal;HPM_P1;HPM_P2
2021/07/17 00:01:07;;;;;;;42.88;17.27;;;19.10;50.90;;;;;;5056950;28;20472;-76
2021/07/17 00:03:33;;;;;;;45.97;16.80;;;19.10;50.80;;;;;;5056759;28;20554;-78
2021/07/17 00:05:58;;;;;;;44.08;18.65;;;19.10;50.70;;;;;;5060164;28;20410;-78
2021/07/17 00:08:24;;;;;;;40.13;17.93;;;19.10;50.80;;;;;;5056359;28;20404;-78
2021/07/17 00:10:50;;;;;;;46.80;18.48;;;19.10;50.60;;;;;;5051865;28;20405;-76
2021/07/17 00:13:17;;;;;;;44.78;17.98;;;19.10;51.00;;;;;;5052263;28;20435;-77
2021/07/17 00:15:43;;;;;;;47.05;18.38;;;19.00;51.20;;;;;;5052691;28;20483;-77
2021/07/17 00:18:09;;;;;;;46.58;17.50;;;19.10;52.00;;;;;;5052737;28;20385;-77
2021/07/17 00:20:35;;;;;;;43.00;17.77;;;19.10;51.10;;;;;;5053164;28;20443;-78
2021/07/17 00:23:01;;;;;;;45.10;17.87;;;19.10;51.10;;;;;;5054370;28;20850;-78
2021/07/17 00:25:27;;;;;;;46.55;18.02;;;19.10;50.80;;;;;;5052414;28;20385;-78
2021/07/17 00:27:54;;;;;;;51.43;19.10;;;19.10;51.20;;;;;;5053701;28;20781;-78
2021/07/17 00:30:20;;;;;;;40.63;17.60;;;19.10;51.30;;;;;;5057560;28;20385;-77
2021/07/17 00:32:46;;;;;;;46.40;18.45;;;19.10;50.80;;;;;;5065479;28;20404;-76
2021/07/17 00:35:13;;;;;;;38.87;17.23;;;19.10;51.00;;;;;;5067421;28;20419;-77
2021/07/17 00:37:39;;;;;;;45.92;19.13;;;19.10;51.20;;;;;;5062942;28;20389;-76
2021/07/17 00:40:07;;;;;;;49.28;17.45;;;19.00;51.00;;;;;;5041090;28;20389;-77
2021/07/17 00:42:33;;;;;;;42.40;19.10;;;19.00;51.30;;;;;;5056973;28;20480;-76
2021/07/17 00:44:59;;;;;;;45.65;18.25;;;19.00;51.80;;;;;;5058688;28;20389;-78
2021/07/17 00:47:25;;;;;;;46.22;18.35;;;19.00;51.70;;;;;;5058296;28;20762;-76
2021/07/17 00:49:51;;;;;;;43.45;18.77;;;19.00;51.90;;;;;;5060138;28;20439;-77
2021/07/17 00:52:17;;;;;;;43.72;18.17;;;19.10;51.60;;;;;;5060010;28;20381;-76
2021/07/17 00:54:44;;;;;;;42.42;18.33;;;19.00;51.30;;;;;;5059603;28;20443;-76
2021/07/17 00:57:10;;;;;;;50.92;18.52;;;19.00;51.90;;;;;;5056075;28;20393;-76
2021/07/17 00:59:36;;;;;;;51.33;18.07;;;19.00;51.70;;;;;;5057155;28;20925;-76
2021/07/17 01:02:03;;;;;;;38.30;17.15;;;19.00;51.40;;;;;;5056057;28;20386;-76
2021/07/17 01:04:31;;;;;;;44.38;18.40;;;19.00;51.00;;;;;;5056480;28;20390;-75
2021/07/17 01:06:58;;;;;;;41.22;18.35;;;19.00;51.40;;;;;;5057091;28;20908;-76
2021/07/17 01:09:24;;;;;;;44.80;18.58;;;19.00;51.20;;;;;;5068835;28;20389;-76
2021/07/17 01:11:51;;;;;;;45.55;18.25;;;19.00;51.20;;;;;;5069557;28;20882;-77
2021/07/17 01:14:17;;;;;;;50.80;19.02;;;19.00;51.40;;;;;;5069001;28;20373;-77
2021/07/17 01:16:42;;;;;;;43.17;18.53;;;18.90;51.70;;;;;;5066617;28;20388;-76
2021/07/17 01:19:11;;;;;;;51.07;18.77;;;18.90;52.80;;;;;;5039397;28;20425;-76
2021/07/17 01:21:37;;;;;;;37.08;18.27;;;18.90;51.00;;;;;;5056141;28;20411;-76
2021/07/17 01:24:03;;;;;;;40.13;17.53;;;18.90;51.30;;;;;;5039649;28;20453;-75
2021/07/17 01:26:29;;;;;;;46.00;17.95;;;18.90;51.00;;;;;;5055671;28;20397;-76
2021/07/17 01:28:55;;;;;;;49.33;18.42;;;18.80;51.60;;;;;;5055786;28;20392;-77
2021/07/17 01:31:21;;;;;;;39.80;18.35;;;18.90;51.70;;;;;;5036149;28;20397;-77
2021/07/17 01:33:46;;;;;;;43.13;19.50;;;18.80;51.80;;;;;;5054503;28;20385;-76
2021/07/17 01:36:13;;;;;;;50.30;19.35;;;18.90;51.00;;;;;;5055290;28;20662;-77
2021/07/17 01:38:39;;;;;;;40.25;18.25;;;18.80;51.20;;;;;;5055313;28;20389;-77
2021/07/17 01:41:04;;;;;;;56.28;19.60;;;18.80;51.10;;;;;;5054516;28;20393;-76
2021/07/17 01:43:30;;;;;;;41.08;18.42;;;18.80;51.20;;;;;;5036116;28;20382;-78
2021/07/17 01:46:00;;;;;;;44.75;19.50;;;18.80;51.70;;;;;;5053567;28;20437;-77
2021/07/17 01:48:26;;;;;;;39.63;18.08;;;18.80;51.60;;;;;;5054882;28;20823;-77
2021/07/17 01:50:52;;;;;;;49.10;19.10;;;18.90;51.00;;;;;;5054109;28;20393;-76
2021/07/17 01:53:18;;;;;;;44.58;18.17;;;18.80;51.30;;;;;;5063590;28;20385;-77
2021/07/17 01:55:44;;;;;;;40.28;18.55;;;18.80;51.10;;;;;;5065775;28;20381;-78
2021/07/17 01:58:10;;;;;;;50.55;18.80;;;18.70;51.50;;;;;;5055219;28;20473;-77
2021/07/17 02:00:36;;;;;;;52.00;17.67;;;18.70;51.40;;;;;;5054161;28;20409;-76
2021/07/17 02:03:03;;;;;;;45.85;19.00;;;18.70;51.10;;;;;;5053082;28;20889;-76
2021/07/17 02:05:29;;;;;;;44.25;18.50;;;18.70;51.40;;;;;;5053758;28;20415;-77
2021/07/17 02:07:55;;;;;;;49.13;18.50;;;18.70;51.50;;;;;;5036234;28;20566;-77
2021/07/17 02:10:24;;;;;;;51.50;19.30;;;18.70;51.80;;;;;;5053826;28;20406;-77
2021/07/17 02:13:04;;;;;;;42.60;18.35;;;18.70;51.80;;;;;;5053931;28;20413;-77
2021/07/17 02:15:41;;;;;;;42.63;18.23;;;18.70;51.40;;;;;;5053308;28;20439;-77
2021/07/17 02:18:07;;;;;;;42.28;18.13;;;18.70;50.80;;;;;;5055027;28;20435;-76
2021/07/17 02:20:33;;;;;;;40.55;17.85;;;18.70;50.50;;;;;;5052694;28;20381;-76
2021/07/17 02:22:59;;;;;;;42.75;17.92;;;18.70;50.80;;;;;;5053908;28;20792;-76
2021/07/17 02:25:25;;;;;;;50.45;18.85;;;18.60;51.50;;;;;;5053389;28;20389;-76
2021/07/17 02:27:51;;;;;;;41.10;18.50;;;18.70;51.10;;;;;;5052001;28;20381;-76
2021/07/17 02:30:16;;;;;;;43.22;17.25;;;18.70;51.10;;;;;;5052289;28;20381;-76
2021/07/17 02:32:42;;;;;;;51.10;19.48;;;18.70;51.30;;;;;;5034577;28;20382;-76
2021/07/17 02:35:08;;;;;;;40.92;17.83;;;18.60;51.40;;;;;;5052259;28;20392;-77
2021/07/17 02:37:34;;;;;;;47.55;17.67;;;18.60;51.30;;;;;;5052189;28;20421;-77
2021/07/17 02:39:59;;;;;;;53.65;20.48;;;18.60;51.70;;;;;;5052681;28;20403;-76
2021/07/17 02:42:25;;;;;;;42.97;19.17;;;18.60;51.50;;;;;;5053166;28;20385;-77
2021/07/17 02:44:51;;;;;;;41.97;18.37;;;18.60;51.40;;;;;;5036973;28;20399;-75
2021/07/17 02:47:17;;;;;;;46.20;18.40;;;18.60;51.70;;;;;;5054519;28;20406;-76
2021/07/17 02:49:43;;;;;;;51.63;19.92;;;18.60;51.30;;;;;;5053432;28;20802;-75
2021/07/17 02:52:09;;;;;;;52.30;19.40;;;18.60;51.50;;;;;;5052009;28;20377;-76
2021/07/17 02:54:35;;;;;;;50.95;19.00;;;18.60;51.40;;;;;;5053724;28;20381;-76
2021/07/17 02:57:00;;;;;;;52.65;19.20;;;18.50;51.90;;;;;;5018841;28;20444;-76
2021/07/17 02:59:26;;;;;;;47.40;19.65;;;18.50;52.40;;;;;;5051693;28;20889;-77
2021/07/17 03:01:52;;;;;;;43.20;19.50;;;18.50;52.80;;;;;;5060727;28;20428;-77
2021/07/17 03:04:18;;;;;;;48.93;20.37;;;18.60;51.90;;;;;;5052379;28;20406;-77
2021/07/17 03:06:43;;;;;;;47.33;20.83;;;18.50;52.10;;;;;;5059572;28;20462;-77
2021/07/17 03:09:09;;;;;;;46.03;21.70;;;18.50;52.60;;;;;;5064499;28;20401;-77
2021/07/17 03:11:34;;;;;;;55.45;21.83;;;18.50;52.70;;;;;;5069806;28;20433;-75
2021/07/17 03:14:02;;;;;;;51.50;21.98;;;18.40;53.00;;;;;;5058730;28;20934;-77
2021/07/17 03:16:30;;;;;;;45.83;21.13;;;18.40;53.10;;;;;;5051840;28;20400;-77
2021/07/17 03:18:56;;;;;;;52.53;20.80;;;18.40;53.10;;;;;;5051477;28;20390;-77
2021/07/17 03:21:22;;;;;;;56.78;21.00;;;18.50;53.40;;;;;;5052845;28;20896;-76
2021/07/17 03:23:47;;;;;;;54.92;21.15;;;18.50;53.40;;;;;;5050895;28;20805;-77
2021/07/17 03:26:13;;;;;;;51.97;20.97;;;18.50;53.40;;;;;;5051726;28;20487;-76
2021/07/17 03:28:38;;;;;;;49.80;19.53;;;18.50;53.70;;;;;;5052015;28;20381;-75
2021/07/17 03:31:04;;;;;;;44.67;20.55;;;18.50;53.70;;;;;;5050501;28;20388;-75
2021/07/17 03:33:29;;;;;;;46.53;20.77;;;18.50;53.90;;;;;;5049479;28;20377;-76
2021/07/17 03:35:57;;;;;;;49.50;20.40;;;18.50;53.80;;;;;;5032712;28;20377;-76
2021/07/17 03:38:24;;;;;;;48.88;20.65;;;18.50;53.70;;;;;;5049975;28;20787;-77
2021/07/17 03:40:50;;;;;;;42.40;19.80;;;18.50;53.80;;;;;;5063736;28;20409;-75
2021/07/17 03:43:15;;;;;;;48.15;19.85;;;18.60;53.60;;;;;;5063283;28;20719;-76
2021/07/17 03:45:41;;;;;;;52.00;20.55;;;18.60;53.30;;;;;;5057536;28;20534;-77
2021/07/17 03:48:07;;;;;;;47.92;20.45;;;18.50;53.70;;;;;;5046430;28;20397;-77
2021/07/17 03:50:33;;;;;;;48.83;21.02;;;18.60;53.80;;;;;;5069818;28;20385;-77
2021/07/17 03:52:58;;;;;;;53.75;20.10;;;18.60;53.40;;;;;;5070568;28;20370;-76
2021/07/17 03:55:24;;;;;;;49.13;21.47;;;18.60;53.60;;;;;;5068838;28;20457;-75
2021/07/17 03:57:49;;;;;;;52.33;21.50;;;18.50;53.50;;;;;;5067276;28;20450;-76
2021/07/17 04:00:16;;;;;;;56.40;21.63;;;18.40;54.00;;;;;;5042818;28;20461;-76
2021/07/17 04:02:45;;;;;;;56.85;22.73;;;18.50;54.50;;;;;;5055872;28;20793;-77
2021/07/17 04:05:13;;;;;;;54.35;23.40;;;18.50;52.90;;;;;;5071377;28;20448;-75
2021/07/17 04:07:39;;;;;;;56.58;22.98;;;18.50;52.30;;;;;;5069528;28;20756;-76
2021/07/17 04:10:06;;;;;;;53.75;21.30;;;18.60;52.20;;;;;;5064543;28;20385;-75
2021/07/17 04:12:32;;;;;;;49.78;21.77;;;18.60;52.90;;;;;;5064967;28;20818;-77
2021/07/17 04:14:58;;;;;;;48.08;20.30;;;18.60;53.60;;;;;;5053784;28;20386;-77
2021/07/17 04:17:24;;;;;;;53.63;20.00;;;18.50;53.50;;;;;;5046545;28;20396;-76
2021/07/17 04:19:49;;;;;;;48.63;21.00;;;18.50;53.50;;;;;;5046260;28;20385;-77
2021/07/17 04:22:15;;;;;;;45.97;20.33;;;18.50;53.60;;;;;;5058972;28;20395;-75
2021/07/17 04:24:41;;;;;;;35.78;18.90;;;18.50;53.50;;;;;;5061993;28;20423;-76
2021/07/17 04:27:07;;;;;;;48.72;19.60;;;18.50;53.20;;;;;;5043689;28;20425;-75
2021/07/17 04:29:33;;;;;;;39.33;18.40;;;18.60;53.70;;;;;;5062062;28;20378;-75
2021/07/17 04:31:59;;;;;;;47.53;18.83;;;18.60;52.80;;;;;;5059034;28;20735;-76
2021/07/17 04:34:24;;;;;;;37.85;17.52;;;18.50;52.90;;;;;;5059648;28;20384;-79
2021/07/17 04:36:50;;;;;;;50.37;18.13;;;18.60;52.60;;;;;;5041682;28;20897;-79
2021/07/17 04:39:16;;;;;;;41.80;18.92;;;18.60;52.40;;;;;;5059576;28;20393;-78
2021/07/17 04:41:42;;;;;;;49.42;19.90;;;18.60;52.80;;;;;;5056443;28;20396;-77
2021/07/17 04:44:08;;;;;;;37.78;18.40;;;18.60;53.50;;;;;;5056617;28;20385;-77
2021/07/17 04:46:33;;;;;;;41.78;18.77;;;18.70;52.10;;;;;;5056524;28;20943;-76
2021/07/17 04:48:59;;;;;;;43.03;18.15;;;18.70;51.40;;;;;;5037400;28;20464;-75
2021/07/17 04:51:25;;;;;;;40.33;18.07;;;18.70;50.40;;;;;;5053490;28;20871;-75
2021/07/17 04:53:51;;;;;;;37.80;17.57;;;18.60;51.00;;;;;;5053487;28;20465;-75
2021/07/17 04:56:16;;;;;;;37.77;17.37;;;18.60;50.90;;;;;;5035554;28;20417;-76
2021/07/17 04:58:42;;;;;;;37.87;17.17;;;18.60;50.90;;;;;;5053379;28;20396;-76
2021/07/17 05:01:07;;;;;;;43.00;16.83;;;18.60;51.20;;;;;;5053022;28;20386;-75
2021/07/17 05:03:35;;;;;;;44.47;17.85;;;18.70;51.00;;;;;;5053315;28;20445;-75
2021/07/17 05:06:01;;;;;;;40.10;17.83;;;18.70;50.40;;;;;;5053153;28;20433;-76
2021/07/17 05:08:27;;;;;;;41.65;17.27;;;18.80;50.00;;;;;;5053034;28;20385;-76
2021/07/17 05:10:52;;;;;;;41.53;16.88;;;19.00;49.40;;;;;;5052819;28;20382;-76
2021/07/17 05:13:18;;;;;;;41.03;15.93;;;19.10;47.50;;;;;;5053979;28;20867;-76
2021/07/17 05:15:44;;;;;;;41.90;15.80;;;18.90;47.80;;;;;;5053497;28;20484;-76
2021/07/17 05:18:13;;;;;;;50.17;17.23;;;18.80;48.70;;;;;;5038812;28;20767;-77
2021/07/17 05:20:40;;;;;;;34.70;17.10;;;18.70;48.80;;;;;;5057715;28;20393;-77
2021/07/17 05:23:06;;;;;;;41.60;17.40;;;18.80;49.50;;;;;;5060871;28;20393;-77
2021/07/17 05:25:32;;;;;;;38.03;16.55;;;18.90;49.20;;;;;;5062178;28;20393;-77
2021/07/17 05:27:57;;;;;;;43.38;16.00;;;18.90;49.30;;;;;;5068286;28;20400;-78
2021/07/17 05:30:23;;;;;;;38.38;16.58;;;19.00;48.40;;;;;;5062456;28;20390;-77
2021/07/17 05:32:49;;;;;;;40.63;17.17;;;19.00;49.20;;;;;;5052940;28;20385;-78
2021/07/17 05:35:15;;;;;;;41.85;17.45;;;19.00;47.90;;;;;;5053025;28;20923;-77
2021/07/17 05:37:41;;;;;;;42.15;17.98;;;19.00;47.80;;;;;;5052871;28;20385;-77
2021/07/17 05:40:08;;;;;;;39.28;17.55;;;19.10;47.80;;;;;;5053134;28;20385;-77
2021/07/17 05:42:34;;;;;;;39.63;20.88;;;19.00;47.50;;;;;;5053234;28;20419;-77
2021/07/17 05:44:59;;;;;;;43.10;18.27;;;19.00;47.20;;;;;;5053525;28;20385;-77
2021/07/17 05:47:26;;;;;;;38.83;17.52;;;18.90;48.00;;;;;;5054266;28;20401;-78
2021/07/17 05:49:52;;;;;;;36.83;16.10;;;18.90;47.90;;;;;;5036370;28;20388;-76
2021/07/17 05:52:18;;;;;;;44.47;15.65;;;18.90;48.10;;;;;;5053828;28;20877;-77
2021/07/17 05:54:43;;;;;;;38.70;16.38;;;18.90;47.10;;;;;;5054129;28;20377;-77
2021/07/17 05:57:09;;;;;;;34.60;15.20;;;18.90;47.60;;;;;;5053207;28;20391;-76
2021/07/17 05:59:38;;;;;;;39.20;17.70;;;18.80;47.20;;;;;;5053447;28;20472;-77
2021/07/17 06:02:04;;;;;;;39.40;17.50;;;18.90;47.10;;;;;;5035295;28;20480;-77
2021/07/17 06:04:35;;;;;;;39.20;17.90;;;19.00;45.90;;;;;;5056285;28;20409;-76
2021/07/17 06:07:01;;;;;;;47.55;17.50;;;19.00;45.80;;;;;;5045584;28;20409;-77
2021/07/17 06:09:27;;;;;;;38.80;17.47;;;19.00;46.00;;;;;;5058885;28;20413;-76
2021/07/17 06:11:52;;;;;;;32.38;15.95;;;19.00;45.60;;;;;;5053232;28;20381;-76
2021/07/17 06:14:19;;;;;;;34.65;17.10;;;18.90;44.80;;;;;;5068509;28;20382;-77
2021/07/17 06:16:44;;;;;;;35.07;16.10;;;19.00;43.80;;;;;;5074461;28;20417;-77
2021/07/17 06:19:11;;;;;;;35.50;16.87;;;19.00;44.10;;;;;;5058266;28;20385;-76
2021/07/17 06:21:37;;;;;;;36.38;16.13;;;19.00;44.50;;;;;;5052639;28;20443;-76
2021/07/17 06:24:03;;;;;;;37.88;17.52;;;18.90;44.50;;;;;;5036235;28;20420;-76
2021/07/17 06:26:29;;;;;;;33.50;15.73;;;19.00;44.40;;;;;;5053173;28;20405;-77
2021/07/17 06:28:55;;;;;;;33.50;16.88;;;19.20;41.20;;;;;;5052477;28;20933;-77
2021/07/17 06:31:20;;;;;;;36.17;18.00;;;19.30;40.80;;;;;;5054241;28;20416;-77
2021/07/17 06:33:47;;;;;;;46.37;17.57;;;19.40;39.70;;;;;;5055386;28;20743;-78
2021/07/17 06:36:12;;;;;;;38.25;18.40;;;19.40;39.70;;;;;;5037189;28;20389;-76
2021/07/17 06:38:38;;;;;;;32.80;16.73;;;19.50;39.30;;;;;;5057389;28;20400;-75
2021/07/17 06:41:04;;;;;;;35.30;14.57;;;19.60;39.40;;;;;;5039543;28;20385;-78
2021/07/17 06:43:30;;;;;;;32.63;15.10;;;19.60;38.70;;;;;;5058790;28;20393;-78
2021/07/17 06:45:56;;;;;;;34.42;15.52;;;19.50;39.20;;;;;;5058719;28;20441;-77
2021/07/17 06:48:22;;;;;;;31.25;15.73;;;19.50;39.30;;;;;;5057394;28;20388;-77
2021/07/17 06:50:48;;;;;;;34.38;15.45;;;19.60;38.50;;;;;;5056147;28;20754;-78
2021/07/17 06:53:14;;;;;;;36.72;16.27;;;19.80;38.50;;;;;;5058687;28;20378;-77
2021/07/17 06:55:41;;;;;;;31.17;16.23;;;20.10;37.50;;;;;;5039190;28;20444;-79
2021/07/17 06:58:08;;;;;;;31.95;16.52;;;20.30;36.50;;;;;;5060159;28;20449;-76
2021/07/17 07:00:35;;;;;;;37.20;15.93;;;20.00;37.30;;;;;;5062371;28;20370;-77
2021/07/17 07:03:02;;;;;;;41.65;17.67;;;20.00;37.90;;;;;;5044524;28;20397;-76
2021/07/17 07:05:28;;;;;;;44.80;18.05;;;19.90;38.50;;;;;;5067906;28;20775;-75
2021/07/17 07:07:53;;;;;;;39.22;17.25;;;20.00;38.00;;;;;;5071513;28;20401;-76
2021/07/17 07:10:19;;;;;;;37.23;16.73;;;20.20;37.30;;;;;;5068118;28;20457;-76
2021/07/17 07:12:45;;;;;;;39.40;15.80;;;20.20;37.30;;;;;;5059711;28;20386;-78
2021/07/17 07:15:10;;;;;;;29.83;13.40;;;20.10;37.60;;;;;;5053182;28;20771;-77
2021/07/17 07:17:38;;;;;;;33.33;15.30;;;20.00;37.50;;;;;;5052794;28;20384;-77
2021/07/17 07:20:06;;;;;;;30.20;13.63;;;20.10;37.60;;;;;;5052843;28;20384;-76
2021/07/17 07:22:31;;;;;;;32.97;14.07;;;20.10;37.00;;;;;;5052718;28;20377;-76
2021/07/17 07:24:57;;;;;;;30.15;13.18;;;20.00;37.70;;;;;;5053098;28;20389;-78
2021/07/17 07:27:22;;;;;;;30.80;14.27;;;19.90;38.50;;;;;;5053531;28;20406;-78
2021/07/17 07:29:48;;;;;;;32.63;14.53;;;19.60;39.30;;;;;;5038827;28;20389;-80
2021/07/17 07:32:14;;;;;;;27.00;14.60;;;19.40;40.40;;;;;;5061411;28;20392;-77
2021/07/17 07:34:40;;;;;;;30.85;14.13;;;19.40;41.10;;;;;;5044252;28;20882;-77
2021/07/17 07:37:05;;;;;;;31.73;13.98;;;19.50;40.90;;;;;;5059271;28;20388;-76
2021/07/17 07:39:32;;;;;;;31.33;14.68;;;19.50;41.10;;;;;;5052850;28;20416;-78
2021/07/17 07:41:57;;;;;;;37.47;14.35;;;19.50;41.60;;;;;;5051778;28;20385;-76
2021/07/17 07:44:23;;;;;;;32.30;14.68;;;19.60;41.00;;;;;;5053663;28;20396;-76
2021/07/17 07:46:49;;;;;;;44.15;15.20;;;19.70;40.90;;;;;;5053051;28;20428;-77
2021/07/17 07:49:15;;;;;;;35.08;14.68;;;19.70;41.50;;;;;;5052981;28;20892;-76
2021/07/17 07:51:41;;;;;;;34.40;15.27;;;19.60;41.40;;;;;;5053973;28;20385;-77
2021/07/17 07:54:06;;;;;;;29.37;14.10;;;19.90;40.70;;;;;;5053471;28;20386;-76
2021/07/17 07:56:32;;;;;;;33.75;14.23;;;20.00;40.10;;;;;;5052377;28;20443;-75
2021/07/17 07:58:58;;;;;;;40.42;13.85;;;20.00;40.50;;;;;;5052385;28;20821;-76
2021/07/17 08:01:23;;;;;;;32.10;14.77;;;20.00;39.90;;;;;;5053302;28;20381;-78
2021/07/17 08:03:49;;;;;;;36.03;15.03;;;20.00;40.00;;;;;;5055163;28;20400;-75
2021/07/17 08:06:15;;;;;;;33.35;14.13;;;20.10;39.60;;;;;;5054933;28;20886;-75
2021/07/17 08:08:41;;;;;;;36.17;13.93;;;20.40;38.60;;;;;;5054509;28;20480;-78
2021/07/17 08:11:07;;;;;;;31.48;14.63;;;20.60;37.60;;;;;;5055255;28;20463;-77
2021/07/17 08:13:32;;;;;;;35.33;13.77;;;20.80;37.30;;;;;;5053236;28;20383;-75
2021/07/17 08:15:59;;;;;;;33.72;14.40;;;20.80;36.90;;;;;;5053274;28;20389;-77
2021/07/17 08:18:25;;;;;;;36.97;13.45;;;20.90;37.00;;;;;;5052692;28;20445;-79
2021/07/17 08:20:50;;;;;;;34.40;14.05;;;21.20;35.80;;;;;;5052434;28;20432;-76
2021/07/17 08:23:16;;;;;;;31.33;14.33;;;21.20;36.20;;;;;;5051655;28;20446;-76
2021/07/17 08:25:42;;;;;;;34.53;13.17;;;21.40;35.50;;;;;;5051343;28;20389;-78
2021/07/17 08:28:08;;;;;;;30.95;13.32;;;21.50;35.20;;;;;;5051360;28;20386;-76
2021/07/17 08:30:35;;;;;;;29.90;12.90;;;21.50;35.60;;;;;;5051130;28;20401;-76
2021/07/17 08:33:01;;;;;;;26.80;12.32;;;21.60;35.00;;;;;;5051112;28;20890;-76
2021/07/17 08:35:27;;;;;;;37.15;14.00;;;21.50;34.80;;;;;;5050524;28;20796;-77
2021/07/17 08:37:52;;;;;;;29.83;12.33;;;21.60;34.20;;;;;;5050470;28;20424;-76
2021/07/17 08:40:19;;;;;;;29.10;14.13;;;21.40;35.00;;;;;;5050373;28;20388;-77
2021/07/17 08:42:47;;;;;;;32.95;13.00;;;21.60;35.20;;;;;;5032525;28;20408;-75
2021/07/17 08:45:13;;;;;;;31.57;13.80;;;21.70;34.70;;;;;;5050430;28;20833;-76
2021/07/17 08:47:42;;;;;;;29.75;13.43;;;21.90;33.20;;;;;;5050795;28;20461;-77
2021/07/17 08:50:10;;;;;;;29.77;12.20;;;22.10;33.10;;;;;;5052813;28;20392;-76
2021/07/17 08:52:36;;;;;;;26.90;14.70;;;22.50;32.10;;;;;;5052931;28;20386;-76
2021/07/17 08:55:05;;;;;;;35.00;15.50;;;22.70;31.00;;;;;;5054372;28;20467;-78
2021/07/17 08:57:35;;;;;;;35.35;13.93;;;23.10;30.30;;;;;;5054297;28;20408;-77
2021/07/17 09:00:08;;;;;;;27.02;12.82;;;23.10;30.50;;;;;;5054891;28;20381;-76
2021/07/17 09:02:45;;;;;;;32.58;14.73;;;23.00;29.90;;;;;;5056827;28;20397;-77
2021/07/17 09:05:17;;;;;;;34.90;15.07;;;23.00;29.90;;;;;;5059090;28;20397;-78
2021/07/17 09:07:43;;;;;;;33.83;15.65;;;23.00;29.30;;;;;;5058388;28;20413;-77
2021/07/17 09:10:30;;;;;;;30.60;16.00;;;23.10;30.10;;;;;;5054658;28;20388;-77
2021/07/17 09:13:12;;;;;;;32.58;17.08;;;23.00;30.30;;;;;;5054095;28;20374;-77
2021/07/17 09:15:48;;;;;;;28.45;14.60;;;23.00;30.90;;;;;;5054455;28;20377;-78
2021/07/17 09:18:26;;;;;;;26.43;13.83;;;22.50;31.80;;;;;;5058429;28;20390;-77
2021/07/17 09:21:06;;;;;;;32.85;16.27;;;21.80;33.90;;;;;;5060414;28;20407;-76
2021/07/17 09:23:38;;;;;;;35.53;18.40;;;21.40;35.40;;;;;;5057311;28;20374;-75
2021/07/17 09:26:12;;;;;;;32.80;18.48;;;21.50;35.20;;;;;;5065798;28;20404;-76
2021/07/17 09:28:38;;;;;;;33.23;16.23;;;21.70;34.50;;;;;;5065111;28;20391;-78
2021/07/17 09:31:06;;;;;;;29.33;16.47;;;21.80;34.00;;;;;;5058414;28;20409;-77
2021/07/17 09:33:32;;;;;;;33.28;16.85;;;21.90;33.90;;;;;;5061069;28;20382;-77
2021/07/17 09:35:58;;;;;;;25.75;14.90;;;22.20;32.80;;;;;;5058731;28;20393;-78
2021/07/17 09:38:27;;;;;;;32.42;16.50;;;22.30;32.20;;;;;;5066255;28;20381;-77
2021/07/17 09:40:55;;;;;;;30.63;15.07;;;22.60;32.40;;;;;;5065632;28;20435;-76
2021/07/17 09:43:42;;;;;;;27.55;12.57;;;22.70;31.70;;;;;;5060042;28;20381;-77
2021/07/17 09:46:24;;;;;;;28.70;13.20;;;22.20;33.50;;;;;;5061451;28;20477;-75
2021/07/17 09:48:53;;;;;;;25.27;11.88;;;22.00;34.00;;;;;;5064661;28;20392;-75
2021/07/17 09:51:29;;;;;;;26.30;12.50;;;22.00;34.60;;;;;;5065252;28;20381;-77
2021/07/17 09:54:00;;;;;;;28.43;12.50;;;22.20;32.60;;;;;;5056330;28;20510;-77
2021/07/17 09:56:36;;;;;;;23.05;10.63;;;22.20;32.00;;;;;;5056273;28;20758;-79
2021/07/17 09:59:05;;;;;;;25.60;11.00;;;22.10;31.30;;;;;;5056013;28;20484;-79
2021/07/17 10:01:37;;;;;;;24.25;10.90;;;22.20;32.40;;;;;;5055355;28;20378;-78
2021/07/17 10:04:08;;;;;;;25.80;10.93;;;22.30;32.30;;;;;;5061814;28;20385;-76
2021/07/17 10:06:42;;;;;;;19.50;9.77;;;22.40;31.50;;;;;;5064570;28;20507;-78
2021/07/17 10:09:22;;;;;;;14.00;8.52;;;22.70;31.00;;;;;;5064435;28;20400;-76
2021/07/17 10:12:03;;;;;;;24.15;9.02;;;22.80;30.70;;;;;;5062502;28;20390;-76
2021/07/17 10:14:33;;;;;;;19.67;8.30;;;22.70;30.90;;;;;;5062008;28;20377;-77
2021/07/17 10:17:06;;;;;;;19.77;9.20;;;22.70;31.10;;;;;;5054122;28;20386;-78
2021/07/17 10:19:32;;;;;;;18.85;8.90;;;22.80;30.90;;;;;;5056688;28;20386;-77
2021/07/17 10:21:58;;;;;;;16.70;8.00;;;22.80;29.70;;;;;;5062915;28;20382;-76
2021/07/17 10:24:26;;;;;;;25.58;8.60;;;22.80;30.10;;;;;;5065463;28;20386;-77
2021/07/17 10:26:53;;;;;;;18.80;8.43;;;23.00;30.40;;;;;;5066186;28;20405;-76
2021/07/17 10:29:20;;;;;;;22.38;9.35;;;23.10;30.60;;;;;;5063801;28;20385;-78
2021/07/17 10:31:47;;;;;;;19.92;7.85;;;23.00;30.90;;;;;;5065538;28;20385;-77
2021/07/17 10:34:13;;;;;;;19.23;8.70;;;22.80;29.70;;;;;;5060317;28;20468;-77
2021/07/17 10:36:44;;;;;;;22.30;9.50;;;22.70;31.20;;;;;;5056178;28;20377;-76
2021/07/17 10:39:11;;;;;;;24.55;9.60;;;22.90;31.50;;;;;;5056426;28;20399;-78
2021/07/17 10:41:39;;;;;;;25.23;9.80;;;22.90;30.30;;;;;;5063241;28;20476;-77
2021/07/17 10:44:06;;;;;;;18.52;8.80;;;23.10;31.20;;;;;;5063474;28;20738;-74
2021/07/17 10:46:38;;;;;;;25.50;9.75;;;23.20;30.50;;;;;;5066328;28;20442;-77
2021/07/17 10:49:09;;;;;;;21.95;9.63;;;23.30;30.20;;;;;;5066427;28;20381;-77
2021/07/17 10:51:42;;;;;;;22.42;8.73;;;23.50;29.60;;;;;;5065225;28;20731;-77
2021/07/17 10:54:10;;;;;;;16.30;6.93;;;23.30;29.80;;;;;;5047071;28;20412;-78
2021/07/17 10:56:37;;;;;;;20.70;8.70;;;23.30;29.60;;;;;;5062050;28;20425;-77
2021/07/17 10:59:12;;;;;;;19.10;8.30;;;23.30;29.10;;;;;;5056510;28;20390;-78
2021/07/17 11:01:56;;;;;;;20.08;8.85;;;23.40;29.20;;;;;;5055111;28;20514;-78
2021/07/17 11:04:44;;;;;;;22.73;8.20;;;23.50;29.40;;;;;;5056311;28;20481;-77
2021/07/17 11:07:15;;;;;;;19.02;8.05;;;23.50;29.20;;;;;;5054877;28;20906;-78
2021/07/17 11:09:49;;;;;;;18.25;7.60;;;23.60;29.70;;;;;;5055993;28;20480;-78
2021/07/17 11:12:26;;;;;;;21.08;8.63;;;23.40;29.40;;;;;;5056005;28;20905;-78
2021/07/17 11:15:17;;;;;;;19.80;7.40;;;23.50;29.60;;;;;;5038001;28;20385;-77
2021/07/17 11:17:53;;;;;;;22.75;7.75;;;23.60;28.90;;;;;;5055158;28;20389;-78
2021/07/17 11:20:29;;;;;;;17.48;6.90;;;23.80;28.40;;;;;;5056475;28;20732;-77
2021/07/17 11:23:05;;;;;;;14.48;6.90;;;23.90;26.20;;;;;;5055591;28;20392;-78
2021/07/17 11:25:31;;;;;;;18.00;5.93;;;24.00;26.60;;;;;;5059480;28;20486;-77
2021/07/17 11:27:57;;;;;;;16.40;6.70;;;24.00;27.20;;;;;;5063596;28;20461;-79
2021/07/17 11:30:24;;;;;;;17.70;7.68;;;23.90;27.90;;;;;;5061141;28;20386;-77
2021/07/17 11:33:05;;;;;;;23.00;8.20;;;24.00;27.40;;;;;;5062322;28;20533;-77
2021/07/17 11:35:38;;;;;;;16.48;7.25;;;24.00;27.30;;;;;;5060670;28;20392;-77
2021/07/17 11:38:05;;;;;;;15.32;7.30;;;24.20;27.70;;;;;;5056506;28;20818;-76
2021/07/17 11:40:31;;;;;;;16.63;6.50;;;24.20;28.60;;;;;;5038075;28;20381;-77
2021/07/17 11:43:01;;;;;;;19.25;7.10;;;24.20;28.00;;;;;;5062566;28;20385;-77
2021/07/17 11:45:27;;;;;;;17.73;6.90;;;24.20;27.10;;;;;;5062406;28;20393;-78
2021/07/17 11:47:52;;;;;;;11.93;6.57;;;24.30;27.30;;;;;;5060758;28;20409;-78
2021/07/17 11:50:21;;;;;;;16.98;6.00;;;24.40;26.20;;;;;;5057425;28;20389;-78
2021/07/17 11:52:47;;;;;;;16.30;6.55;;;24.40;27.00;;;;;;5054736;28;20389;-78
2021/07/17 11:55:15;;;;;;;11.45;6.55;;;24.40;27.30;;;;;;5038262;28;20862;-78
2021/07/17 11:57:43;;;;;;;12.52;6.22;;;24.60;26.70;;;;;;5056545;28;20409;-78
2021/07/17 12:00:22;;;;;;;16.75;6.50;;;24.80;26.40;;;;;;5056707;28;20409;-78
2021/07/17 12:02:56;;;;;;;15.80;5.78;;;24.90;26.00;;;;;;5060033;28;20381;-80
2021/07/17 12:05:22;;;;;;;7.82;4.88;;;24.90;25.60;;;;;;5057912;28;20386;-77
2021/07/17 12:07:49;;;;;;;10.05;5.38;;;24.40;25.50;;;;;;5062691;28;20413;-78
2021/07/17 12:10:23;;;;;;;10.20;5.30;;;24.50;25.70;;;;;;5059086;28;20385;-75
2021/07/17 12:12:51;;;;;;;13.37;5.90;;;24.70;26.20;;;;;;5055479;28;20381;-76
2021/07/17 12:15:18;;;;;;;11.10;4.82;;;24.90;25.40;;;;;;5054938;28;20421;-77
2021/07/17 12:17:47;;;;;;;13.02;5.30;;;25.00;25.10;;;;;;5056955;28;20385;-78
2021/07/17 12:20:38;;;;;;;7.95;4.10;;;25.20;24.60;;;;;;5057520;28;20742;-78
2021/07/17 12:23:12;;;;;;;11.77;5.00;;;24.90;24.80;;;;;;5055089;28;20502;-78
2021/07/17 12:25:49;;;;;;;13.25;4.68;;;25.00;25.30;;;;;;5042477;28;20404;-77
2021/07/17 12:28:19;;;;;;;13.10;5.50;;;25.00;24.50;;;;;;5067297;28;20396;-76
2021/07/17 12:30:53;;;;;;;7.82;4.40;;;25.00;25.40;;;;;;5068000;28;20390;-77